sensor_id;sensor_type;location;lat;lon;timestamp;P1;durP1;ratioP1;P2;durP2;ratioP2
56477;SDS011;42382;53.210;5.772;2023-03-31T00:02:17;45.92;;;5.82;;
56477;SDS011;42382;53.210;5.772;2023-03-31T00:04:46;43.78;;;6.50;;
56477;SDS011;42382;53.210;5.772;2023-03-31T00:07:17;41.58;;;7.18;;
56477;SDS011;42382;53.210;5.772;2023-03-31T00:09:46;50.53;;;6.57;;
56477;SDS011;42382;53.210;5.772;2023-03-31T00:12:13;38.80;;;4.90;;
56477;SDS011;42382;53.210;5.772;2023-03-31T00:14:40;45.15;;;5.35;;
56477;SDS011;42382;53.210;5.772;2023-03-31T00:17:07;43.63;;;6.18;;
56477;SDS011;42382;53.210;5.772;2023-03-31T00:19:33;34.35;;;4.85;;
56477;SDS011;42382;53.210;5.772;2023-03-31T00:21:59;44.40;;;5.63;;
56477;SDS011;42382;53.210;5.772;2023-03-31T00:24:29;38.28;;;4.95;;
56477;SDS011;42382;53.210;5.772;2023-03-31T00:26:59;47.83;;;6.05;;
56477;SDS011;42382;53.210;5.772;2023-03-31T00:29:25;41.63;;;5.80;;
56477;SDS011;42382;53.210;5.772;2023-03-31T00:31:51;48.13;;;6.57;;
56477;SDS011;42382;53.210;5.772;2023-03-31T00:34:17;39.83;;;5.15;;
56477;SDS011;42382;53.210;5.772;2023-03-31T00:36:43;46.10;;;6.60;;
56477;SDS011;42382;53.210;5.772;2023-03-31T00:39:12;44.47;;;6.55;;
56477;SDS011;42382;53.210;5.772;2023-03-31T00:41:39;33.00;;;5.40;;
56477;SDS011;42382;53.210;5.772;2023-03-31T00:46:43;41.38;;;4.25;;
56477;SDS011;42382;53.210;5.772;2023-03-31T00:49:27;42.63;;;5.53;;
56477;SDS011;42382;53.210;5.772;2023-03-31T00:52:01;45.03;;;5.13;;
56477;SDS011;42382;53.210;5.772;2023-03-31T00:54:31;39.80;;;4.90;;
56477;SDS011;42382;53.210;5.772;2023-03-31T00:56:57;44.20;;;5.57;;
56477;SDS011;42382;53.210;5.772;2023-03-31T00:59:27;34.90;;;5.25;;
56477;SDS011;42382;53.210;5.772;2023-03-31T01:01:58;45.97;;;5.28;;
56477;SDS011;42382;53.210;5.772;2023-03-31T01:04:27;42.05;;;5.28;;
56477;SDS011;42382;53.210;5.772;2023-03-31T01:06:59;40.70;;;5.53;;
56477;SDS011;42382;53.210;5.772;2023-03-31T01:09:33;44.75;;;5.40;;
56477;SDS011;42382;53.210;5.772;2023-03-31T01:12:02;48.05;;;5.15;;
56477;SDS011;42382;53.210;5.772;2023-03-31T01:14:32;38.90;;;4.18;;
56477;SDS011;42382;53.210;5.772;2023-03-31T01:16:59;36.55;;;4.50;;
56477;SDS011;42382;53.210;5.772;2023-03-31T01:19:40;36.00;;;4.30;;
56477;SDS011;42382;53.210;5.772;2023-03-31T01:22:20;41.90;;;5.70;;
56477;SDS011;42382;53.210;5.772;2023-03-31T02:07:13;30.35;;;4.70;;
56477;SDS011;42382;53.210;5.772;2023-03-31T03:19:36;32.30;;;4.20;;
56477;SDS011;42382;53.210;5.772;2023-03-31T04:57:07;20.15;;;6.38;;
56477;SDS011;42382;53.210;5.772;2023-03-31T04:59:33;19.55;;;5.93;;
56477;SDS011;42382;53.210;5.772;2023-03-31T05:01:59;18.00;;;5.57;;
56477;SDS011;42382;53.210;5.772;2023-03-31T05:04:24;17.85;;;5.57;;
56477;SDS011;42382;53.210;5.772;2023-03-31T05:06:50;17.98;;;6.05;;
56477;SDS011;42382;53.210;5.772;2023-03-31T05:09:16;20.73;;;6.72;;
56477;SDS011;42382;53.210;5.772;2023-03-31T05:11:41;17.58;;;5.45;;
56477;SDS011;42382;53.210;5.772;2023-03-31T05:14:07;20.40;;;6.22;;
56477;SDS011;42382;53.210;5.772;2023-03-31T05:16:33;21.98;;;6.03;;
56477;SDS011;42382;53.210;5.772;2023-03-31T05:18:58;21.27;;;5.88;;
56477;SDS011;42382;53.210;5.772;2023-03-31T05:21:24;20.35;;;6.75;;
56477;SDS011;42382;53.210;5.772;2023-03-31T05:23:51;18.65;;;7.05;;
56477;SDS011;42382;53.210;5.772;2023-03-31T05:26:17;18.92;;;5.75;;
56477;SDS011;42382;53.210;5.772;2023-03-31T05:28:43;15.82;;;6.03;;
56477;SDS011;42382;53.210;5.772;2023-03-31T05:31:09;19.52;;;6.38;;
56477;SDS011;42382;53.210;5.772;2023-03-31T05:33:36;22.67;;;7.18;;
56477;SDS011;42382;53.210;5.772;2023-03-31T05:36:09;21.85;;;7.40;;
56477;SDS011;42382;53.210;5.772;2023-03-31T05:38:36;17.70;;;5.93;;
56477;SDS011;42382;53.210;5.772;2023-03-31T05:41:02;16.90;;;6.28;;
56477;SDS011;42382;53.210;5.772;2023-03-31T05:43:28;16.60;;;5.93;;
56477;SDS011;42382;53.210;5.772;2023-03-31T05:45:54;22.35;;;8.13;;
56477;SDS011;42382;53.210;5.772;2023-03-31T05:48:20;17.48;;;6.55;;
56477;SDS011;42382;53.210;5.772;2023-03-31T05:50:45;17.52;;;6.25;;
56477;SDS011;42382;53.210;5.772;2023-03-31T05:53:11;15.63;;;7.13;;
56477;SDS011;42382;53.210;5.772;2023-03-31T05:55:37;22.85;;;7.47;;
56477;SDS011;42382;53.210;5.772;2023-03-31T05:58:03;18.98;;;7.80;;
56477;SDS011;42382;53.210;5.772;2023-03-31T06:00:30;20.55;;;7.90;;
56477;SDS011;42382;53.210;5.772;2023-03-31T06:02:56;19.88;;;7.68;;
56477;SDS011;42382;53.210;5.772;2023-03-31T06:05:23;19.13;;;8.60;;
56477;SDS011;42382;53.210;5.772;2023-03-31T06:07:50;20.25;;;8.13;;
56477;SDS011;42382;53.210;5.772;2023-03-31T06:10:19;21.40;;;6.88;;
56477;SDS011;42382;53.210;5.772;2023-03-31T06:12:45;18.23;;;7.25;;
56477;SDS011;42382;53.210;5.772;2023-03-31T06:15:10;20.20;;;7.72;;
56477;SDS011;42382;53.210;5.772;2023-03-31T06:17:36;21.20;;;8.27;;
56477;SDS011;42382;53.210;5.772;2023-03-31T06:20:02;19.20;;;8.20;;
56477;SDS011;42382;53.210;5.772;2023-03-31T06:22:29;19.40;;;8.63;;
56477;SDS011;42382;53.210;5.772;2023-03-31T06:24:55;21.13;;;8.65;;
56477;SDS011;42382;53.210;5.772;2023-03-31T06:27:20;16.55;;;8.00;;
56477;SDS011;42382;53.210;5.772;2023-03-31T06:29:46;21.52;;;9.63;;
56477;SDS011;42382;53.210;5.772;2023-03-31T06:32:14;19.98;;;8.80;;
56477;SDS011;42382;53.210;5.772;2023-03-31T06:34:39;23.27;;;8.48;;
56477;SDS011;42382;53.210;5.772;2023-03-31T06:37:05;19.75;;;7.57;;
56477;SDS011;42382;53.210;5.772;2023-03-31T06:39:30;19.05;;;8.27;;
56477;SDS011;42382;53.210;5.772;2023-03-31T06:41:56;15.40;;;6.40;;
56477;SDS011;42382;53.210;5.772;2023-03-31T06:44:22;14.10;;;6.75;;
56477;SDS011;42382;53.210;5.772;2023-03-31T06:46:48;16.85;;;7.32;;
56477;SDS011;42382;53.210;5.772;2023-03-31T06:49:14;12.63;;;6.13;;
56477;SDS011;42382;53.210;5.772;2023-03-31T06:51:40;10.70;;;5.47;;
56477;SDS011;42382;53.210;5.772;2023-03-31T06:54:06;12.70;;;5.03;;
56477;SDS011;42382;53.210;5.772;2023-03-31T06:56:31;14.10;;;4.43;;
56477;SDS011;42382;53.210;5.772;2023-03-31T06:58:57;12.98;;;5.18;;
56477;SDS011;42382;53.210;5.772;2023-03-31T07:01:23;13.52;;;4.47;;
56477;SDS011;42382;53.210;5.772;2023-03-31T07:03:48;11.88;;;3.30;;
56477;SDS011;42382;53.210;5.772;2023-03-31T07:06:14;11.45;;;3.00;;
56477;SDS011;42382;53.210;5.772;2023-03-31T07:08:40;8.40;;;2.80;;
56477;SDS011;42382;53.210;5.772;2023-03-31T07:11:05;11.57;;;2.92;;
56477;SDS011;42382;53.210;5.772;2023-03-31T07:13:31;8.88;;;2.60;;
56477;SDS011;42382;53.210;5.772;2023-03-31T07:15:56;10.38;;;3.00;;
56477;SDS011;42382;53.210;5.772;2023-03-31T07:18:22;8.88;;;2.83;;
56477;SDS011;42382;53.210;5.772;2023-03-31T07:20:56;5.95;;;2.50;;
56477;SDS011;42382;53.210;5.772;2023-03-31T07:23:22;6.30;;;2.80;;
56477;SDS011;42382;53.210;5.772;2023-03-31T07:25:48;7.25;;;2.83;;
56477;SDS011;42382;53.210;5.772;2023-03-31T07:28:14;6.07;;;2.83;;
56477;SDS011;42382;53.210;5.772;2023-03-31T07:30:40;8.07;;;2.35;;
56477;SDS011;42382;53.210;5.772;2023-03-31T07:33:06;8.95;;;2.97;;
56477;SDS011;42382;53.210;5.772;2023-03-31T07:35:32;9.55;;;2.95;;
56477;SDS011;42382;53.210;5.772;2023-03-31T07:37:57;7.82;;;2.50;;
56477;SDS011;42382;53.210;5.772;2023-03-31T07:40:24;3.85;;;1.70;;
56477;SDS011;42382;53.210;5.772;2023-03-31T07:42:51;6.82;;;1.95;;
56477;SDS011;42382;53.210;5.772;2023-03-31T07:45:18;4.38;;;1.35;;
56477;SDS011;42382;53.210;5.772;2023-03-31T07:47:45;5.05;;;1.30;;
56477;SDS011;42382;53.210;5.772;2023-03-31T07:50:11;4.90;;;1.73;;
56477;SDS011;42382;53.210;5.772;2023-03-31T07:52:38;4.55;;;1.48;;
56477;SDS011;42382;53.210;5.772;2023-03-31T07:55:07;5.20;;;1.92;;
56477;SDS011;42382;53.210;5.772;2023-03-31T07:57:33;5.32;;;1.88;;
56477;SDS011;42382;53.210;5.772;2023-03-31T08:00:00;7.20;;;2.35;;
56477;SDS011;42382;53.210;5.772;2023-03-31T08:02:30;5.70;;;1.83;;
56477;SDS011;42382;53.210;5.772;2023-03-31T08:04:56;7.15;;;2.80;;
56477;SDS011;42382;53.210;5.772;2023-03-31T08:07:21;6.47;;;2.33;;
56477;SDS011;42382;53.210;5.772;2023-03-31T08:09:47;6.40;;;2.45;;
56477;SDS011;42382;53.210;5.772;2023-03-31T08:12:13;9.07;;;2.53;;
56477;SDS011;42382;53.210;5.772;2023-03-31T08:14:41;8.30;;;2.70;;
56477;SDS011;42382;53.210;5.772;2023-03-31T08:17:07;10.00;;;3.03;;
56477;SDS011;42382;53.210;5.772;2023-03-31T08:19:33;6.63;;;3.53;;
56477;SDS011;42382;53.210;5.772;2023-03-31T08:21:59;6.10;;;3.40;;
56477;SDS011;42382;53.210;5.772;2023-03-31T08:24:24;7.82;;;3.25;;
56477;SDS011;42382;53.210;5.772;2023-03-31T08:26:50;9.15;;;3.80;;
56477;SDS011;42382;53.210;5.772;2023-03-31T08:29:16;8.35;;;3.67;;
56477;SDS011;42382;53.210;5.772;2023-03-31T08:31:41;9.95;;;3.67;;
56477;SDS011;42382;53.210;5.772;2023-03-31T08:34:07;10.57;;;3.55;;
56477;SDS011;42382;53.210;5.772;2023-03-31T08:36:33;9.57;;;3.40;;
56477;SDS011;42382;53.210;5.772;2023-03-31T08:38:59;8.07;;;3.47;;
56477;SDS011;42382;53.210;5.772;2023-03-31T08:47:13;7.10;;;2.92;;
56477;SDS011;42382;53.210;5.772;2023-03-31T08:49:45;9.38;;;3.30;;
56477;SDS011;42382;53.210;5.772;2023-03-31T08:52:15;10.18;;;2.83;;
56477;SDS011;42382;53.210;5.772;2023-03-31T08:54:51;9.73;;;3.13;;
56477;SDS011;42382;53.210;5.772;2023-03-31T08:57:29;9.38;;;3.35;;
56477;SDS011;42382;53.210;5.772;2023-03-31T09:00:02;7.03;;;2.90;;
56477;SDS011;42382;53.210;5.772;2023-03-31T09:02:40;10.52;;;3.30;;
56477;SDS011;42382;53.210;5.772;2023-03-31T09:07:54;9.82;;;3.42;;
56477;SDS011;42382;53.210;5.772;2023-03-31T09:10:38;14.82;;;3.60;;
56477;SDS011;42382;53.210;5.772;2023-03-31T09:13:29;9.48;;;3.85;;
56477;SDS011;42382;53.210;5.772;2023-03-31T09:16:30;9.32;;;3.50;;
56477;SDS011;42382;53.210;5.772;2023-03-31T09:18:59;7.30;;;3.13;;
56477;SDS011;42382;53.210;5.772;2023-03-31T09:24:07;6.93;;;2.67;;
56477;SDS011;42382;53.210;5.772;2023-03-31T09:26:44;8.00;;;2.20;;
56477;SDS011;42382;53.210;5.772;2023-03-31T09:29:16;9.05;;;2.22;;
56477;SDS011;42382;53.210;5.772;2023-03-31T09:31:54;5.85;;;1.75;;
56477;SDS011;42382;53.210;5.772;2023-03-31T09:34:40;7.53;;;1.83;;
56477;SDS011;42382;53.210;5.772;2023-03-31T09:37:09;4.63;;;1.45;;
56477;SDS011;42382;53.210;5.772;2023-03-31T09:39:35;8.63;;;1.73;;
56477;SDS011;42382;53.210;5.772;2023-03-31T09:42:02;7.47;;;1.73;;
56477;SDS011;42382;53.210;5.772;2023-03-31T09:44:46;6.97;;;2.22;;
56477;SDS011;42382;53.210;5.772;2023-03-31T09:47:20;6.63;;;1.98;;
56477;SDS011;42382;53.210;5.772;2023-03-31T09:49:55;4.78;;;1.63;;
56477;SDS011;42382;53.210;5.772;2023-03-31T09:52:31;7.50;;;1.98;;
56477;SDS011;42382;53.210;5.772;2023-03-31T09:55:42;6.13;;;1.70;;
56477;SDS011;42382;53.210;5.772;2023-03-31T09:58:01;5.63;;;2.05;;
56477;SDS011;42382;53.210;5.772;2023-03-31T10:00:32;7.35;;;1.80;;
56477;SDS011;42382;53.210;5.772;2023-03-31T10:03:01;10.75;;;2.22;;
56477;SDS011;42382;53.210;5.772;2023-03-31T10:05:32;7.07;;;2.20;;
56477;SDS011;42382;53.210;5.772;2023-03-31T10:10:48;8.05;;;2.50;;
56477;SDS011;42382;53.210;5.772;2023-03-31T10:13:21;10.57;;;3.20;;
56477;SDS011;42382;53.210;5.772;2023-03-31T10:16:03;10.85;;;2.95;;
56477;SDS011;42382;53.210;5.772;2023-03-31T10:18:40;5.47;;;2.05;;
56477;SDS011;42382;53.210;5.772;2023-03-31T10:21:44;8.93;;;2.58;;
56477;SDS011;42382;53.210;5.772;2023-03-31T10:24:11;13.48;;;3.75;;
56477;SDS011;42382;53.210;5.772;2023-03-31T10:26:41;9.85;;;3.05;;
56477;SDS011;42382;53.210;5.772;2023-03-31T10:29:11;9.55;;;3.20;;
56477;SDS011;42382;53.210;5.772;2023-03-31T10:31:37;9.88;;;3.03;;
56477;SDS011;42382;53.210;5.772;2023-03-31T10:34:07;9.68;;;3.45;;
56477;SDS011;42382;53.210;5.772;2023-03-31T10:36:36;11.88;;;2.88;;
56477;SDS011;42382;53.210;5.772;2023-03-31T10:39:04;8.23;;;2.90;;
56477;SDS011;42382;53.210;5.772;2023-03-31T10:41:31;9.77;;;2.90;;
56477;SDS011;42382;53.210;5.772;2023-03-31T10:44:01;10.80;;;2.95;;
56477;SDS011;42382;53.210;5.772;2023-03-31T10:46:47;9.50;;;2.40;;
56477;SDS011;42382;53.210;5.772;2023-03-31T10:49:23;8.98;;;2.03;;
56477;SDS011;42382;53.210;5.772;2023-03-31T10:51:57;10.18;;;2.97;;
56477;SDS011;42382;53.210;5.772;2023-03-31T10:54:24;10.10;;;2.35;;
56477;SDS011;42382;53.210;5.772;2023-03-31T10:56:51;12.27;;;2.83;;
56477;SDS011;42382;53.210;5.772;2023-03-31T10:59:34;9.65;;;2.47;;
56477;SDS011;42382;53.210;5.772;2023-03-31T11:07:58;10.70;;;2.58;;
56477;SDS011;42382;53.210;5.772;2023-03-31T11:10:45;10.98;;;2.33;;
56477;SDS011;42382;53.210;5.772;2023-03-31T11:16:27;11.32;;;2.53;;
56477;SDS011;42382;53.210;5.772;2023-03-31T11:19:08;10.52;;;2.72;;
56477;SDS011;42382;53.210;5.772;2023-03-31T11:21:57;8.55;;;1.90;;
56477;SDS011;42382;53.210;5.772;2023-03-31T11:24:29;12.55;;;2.70;;
56477;SDS011;42382;53.210;5.772;2023-03-31T11:27:27;8.57;;;1.85;;
56477;SDS011;42382;53.210;5.772;2023-03-31T12:52:06;12.30;;;3.47;;
56477;SDS011;42382;53.210;5.772;2023-03-31T12:57:41;12.52;;;2.15;;
56477;SDS011;42382;53.210;5.772;2023-03-31T13:02:35;7.93;;;1.70;;
56477;SDS011;42382;53.210;5.772;2023-03-31T13:05:46;10.38;;;1.83;;
56477;SDS011;42382;53.210;5.772;2023-03-31T13:08:08;9.80;;;1.95;;
56477;SDS011;42382;53.210;5.772;2023-03-31T13:13:18;11.38;;;1.83;;
56477;SDS011;42382;53.210;5.772;2023-03-31T13:15:54;7.20;;;1.20;;
56477;SDS011;42382;53.210;5.772;2023-03-31T13:18:21;10.43;;;1.42;;
56477;SDS011;42382;53.210;5.772;2023-03-31T13:20:59;9.32;;;1.05;;
56477;SDS011;42382;53.210;5.772;2023-03-31T13:23:31;4.40;;;0.98;;
56477;SDS011;42382;53.210;5.772;2023-03-31T13:25:59;8.35;;;2.47;;
56477;SDS011;42382;53.210;5.772;2023-03-31T13:28:26;8.43;;;1.35;;
56477;SDS011;42382;53.210;5.772;2023-03-31T13:31:03;11.70;;;2.35;;
56477;SDS011;42382;53.210;5.772;2023-03-31T13:42:01;8.63;;;1.08;;
56477;SDS011;42382;53.210;5.772;2023-03-31T13:58:36;5.30;;;1.17;;
56477;SDS011;42382;53.210;5.772;2023-03-31T14:06:58;7.57;;;1.52;;
56477;SDS011;42382;53.210;5.772;2023-03-31T14:09:32;6.95;;;0.90;;
56477;SDS011;42382;53.210;5.772;2023-03-31T14:12:18;6.45;;;1.05;;
56477;SDS011;42382;53.210;5.772;2023-03-31T14:14:55;11.00;;;1.00;;
56477;SDS011;42382;53.210;5.772;2023-03-31T14:17:22;4.35;;;0.90;;
56477;SDS011;42382;53.210;5.772;2023-03-31T14:23:07;3.83;;;0.60;;
56477;SDS011;42382;53.210;5.772;2023-03-31T14:28:23;6.40;;;0.73;;
56477;SDS011;42382;53.210;5.772;2023-03-31T14:31:14;5.22;;;0.50;;
56477;SDS011;42382;53.210;5.772;2023-03-31T14:34:22;7.70;;;1.35;;
56477;SDS011;42382;53.210;5.772;2023-03-31T14:37:10;5.22;;;0.75;;
56477;SDS011;42382;53.210;5.772;2023-03-31T14:39:43;3.30;;;0.80;;
56477;SDS011;42382;53.210;5.772;2023-03-31T14:42:16;4.65;;;0.50;;
56477;SDS011;42382;53.210;5.772;2023-03-31T14:44:52;4.95;;;0.85;;
56477;SDS011;42382;53.210;5.772;2023-03-31T14:47:21;6.38;;;0.50;;
56477;SDS011;42382;53.210;5.772;2023-03-31T14:49:57;4.43;;;1.15;;
56477;SDS011;42382;53.210;5.772;2023-03-31T14:52:37;4.20;;;0.70;;
56477;SDS011;42382;53.210;5.772;2023-03-31T14:55:03;4.05;;;1.05;;
56477;SDS011;42382;53.210;5.772;2023-03-31T14:57:33;7.50;;;1.02;;
56477;SDS011;42382;53.210;5.772;2023-03-31T15:00:06;4.72;;;1.25;;
56477;SDS011;42382;53.210;5.772;2023-03-31T15:02:39;5.30;;;0.93;;
56477;SDS011;42382;53.210;5.772;2023-03-31T15:07:58;5.97;;;1.00;;
56477;SDS011;42382;53.210;5.772;2023-03-31T15:10:28;6.82;;;1.00;;
56477;SDS011;42382;53.210;5.772;2023-03-31T15:12:57;4.10;;;0.45;;
56477;SDS011;42382;53.210;5.772;2023-03-31T15:15:23;6.38;;;0.90;;
56477;SDS011;42382;53.210;5.772;2023-03-31T15:17:51;5.70;;;0.80;;
56477;SDS011;42382;53.210;5.772;2023-03-31T15:20:39;3.28;;;0.70;;
56477;SDS011;42382;53.210;5.772;2023-03-31T15:23:17;4.35;;;0.55;;
56477;SDS011;42382;53.210;5.772;2023-03-31T15:26:02;5.60;;;1.33;;
56477;SDS011;42382;53.210;5.772;2023-03-31T15:29:07;4.65;;;0.77;;
56477;SDS011;42382;53.210;5.772;2023-03-31T15:31:30;4.55;;;0.50;;
56477;SDS011;42382;53.210;5.772;2023-03-31T15:33:56;3.70;;;1.00;;
56477;SDS011;42382;53.210;5.772;2023-03-31T15:36:21;3.55;;;1.10;;
56477;SDS011;42382;53.210;5.772;2023-03-31T15:38:58;4.95;;;0.90;;
56477;SDS011;42382;53.210;5.772;2023-03-31T15:41:27;5.05;;;0.73;;
56477;SDS011;42382;53.210;5.772;2023-03-31T15:44:06;5.10;;;0.68;;
56477;SDS011;42382;53.210;5.772;2023-03-31T15:46:55;5.40;;;0.80;;
56477;SDS011;42382;53.210;5.772;2023-03-31T15:49:23;6.10;;;0.80;;
56477;SDS011;42382;53.210;5.772;2023-03-31T15:51:51;6.25;;;1.15;;
56477;SDS011;42382;53.210;5.772;2023-03-31T15:54:32;2.65;;;0.50;;
56477;SDS011;42382;53.210;5.772;2023-03-31T15:57:04;3.95;;;0.50;;
56477;SDS011;42382;53.210;5.772;2023-03-31T15:59:42;6.18;;;0.70;;
56477;SDS011;42382;53.210;5.772;2023-03-31T16:02:16;7.75;;;1.30;;
56477;SDS011;42382;53.210;5.772;2023-03-31T16:04:48;6.45;;;0.57;;
56477;SDS011;42382;53.210;5.772;2023-03-31T16:07:22;6.82;;;1.23;;
56477;SDS011;42382;53.210;5.772;2023-03-31T16:09:56;5.90;;;1.00;;
56477;SDS011;42382;53.210;5.772;2023-03-31T16:12:36;6.35;;;0.90;;
56477;SDS011;42382;53.210;5.772;2023-03-31T16:15:13;5.18;;;1.15;;
56477;SDS011;42382;53.210;5.772;2023-03-31T16:17:47;6.20;;;0.65;;
56477;SDS011;42382;53.210;5.772;2023-03-31T16:20:20;4.38;;;0.90;;
56477;SDS011;42382;53.210;5.772;2023-03-31T16:22:53;2.17;;;0.60;;
56477;SDS011;42382;53.210;5.772;2023-03-31T16:25:23;5.22;;;1.00;;
56477;SDS011;42382;53.210;5.772;2023-03-31T16:27:55;3.45;;;0.60;;
56477;SDS011;42382;53.210;5.772;2023-03-31T16:33:06;5.00;;;0.82;;
56477;SDS011;42382;53.210;5.772;2023-03-31T16:35:34;3.40;;;0.52;;
56477;SDS011;42382;53.210;5.772;2023-03-31T16:38:01;4.20;;;0.98;;
56477;SDS011;42382;53.210;5.772;2023-03-31T16:40:28;5.47;;;1.15;;
56477;SDS011;42382;53.210;5.772;2023-03-31T16:45:49;2.78;;;0.45;;
56477;SDS011;42382;53.210;5.772;2023-03-31T16:48:16;5.68;;;1.00;;
56477;SDS011;42382;53.210;5.772;2023-03-31T16:50:47;2.88;;;0.57;;
56477;SDS011;42382;53.210;5.772;2023-03-31T16:53:15;6.55;;;1.20;;
56477;SDS011;42382;53.210;5.772;2023-03-31T16:55:42;3.58;;;0.75;;
56477;SDS011;42382;53.210;5.772;2023-03-31T16:58:09;5.10;;;0.82;;
56477;SDS011;42382;53.210;5.772;2023-03-31T17:00:35;7.35;;;1.10;;
56477;SDS011;42382;53.210;5.772;2023-03-31T17:03:01;4.05;;;1.02;;
56477;SDS011;42382;53.210;5.772;2023-03-31T17:05:28;5.63;;;1.85;;
56477;SDS011;42382;53.210;5.772;2023-03-31T17:07:58;5.88;;;1.85;;
56477;SDS011;42382;53.210;5.772;2023-03-31T17:10:24;3.05;;;1.05;;
56477;SDS011;42382;53.210;5.772;2023-03-31T17:12:50;4.00;;;0.90;;
56477;SDS011;42382;53.210;5.772;2023-03-31T17:15:15;8.48;;;1.48;;
56477;SDS011;42382;53.210;5.772;2023-03-31T17:17:41;6.03;;;1.35;;
56477;SDS011;42382;53.210;5.772;2023-03-31T17:20:07;4.80;;;0.98;;
56477;SDS011;42382;53.210;5.772;2023-03-31T17:22:34;7.10;;;1.33;;
56477;SDS011;42382;53.210;5.772;2023-03-31T17:25:00;4.40;;;1.42;;
56477;SDS011;42382;53.210;5.772;2023-03-31T17:27:27;4.07;;;0.90;;
56477;SDS011;42382;53.210;5.772;2023-03-31T17:29:53;4.43;;;1.27;;
56477;SDS011;42382;53.210;5.772;2023-03-31T17:32:19;5.20;;;1.27;;
56477;SDS011;42382;53.210;5.772;2023-03-31T17:34:46;5.95;;;1.30;;
56477;SDS011;42382;53.210;5.772;2023-03-31T17:37:16;8.57;;;1.92;;
56477;SDS011;42382;53.210;5.772;2023-03-31T17:39:42;4.72;;;0.93;;
56477;SDS011;42382;53.210;5.772;2023-03-31T17:42:09;5.68;;;1.60;;
56477;SDS011;42382;53.210;5.772;2023-03-31T17:44:37;8.30;;;3.25;;
56477;SDS011;42382;53.210;5.772;2023-03-31T17:47:02;8.73;;;2.58;;
56477;SDS011;42382;53.210;5.772;2023-03-31T17:49:28;8.90;;;3.08;;
56477;SDS011;42382;53.210;5.772;2023-03-31T17:51:54;2.63;;;0.80;;
56477;SDS011;42382;53.210;5.772;2023-03-31T17:54:19;4.90;;;0.60;;
56477;SDS011;42382;53.210;5.772;2023-03-31T17:56:45;5.15;;;0.75;;
56477;SDS011;42382;53.210;5.772;2023-03-31T17:59:14;3.15;;;0.60;;
56477;SDS011;42382;53.210;5.772;2023-03-31T18:01:40;2.95;;;0.50;;
56477;SDS011;42382;53.210;5.772;2023-03-31T18:04:06;3.53;;;0.70;;
